Time;durP1;ratioP1;P1;durP2;ratioP2;P2;SDS_P1;SDS_P2;PMS_P1;PMS_P2;Temp;Humidity;BMP_temperature;BMP_pressure;BME280_temperature;BME280_humidity;BME280_pressure;Samples;Min_cycle;Max_cycle;Signal;HPM_P1;HPM_P2
2022/04/06 00:02:15;;;;;;;21.60;9.88;;;;;;;;;;5035728;28;20029;-64
2022/04/06 00:04:40;;;;;;;20.63;9.23;;;;;;;;;;5034896;28;20036;-63
2022/04/06 00:07:05;;;;;;;20.13;8.75;;;;;;;;;;5035678;28;20032;-63
2022/04/06 00:09:31;;;;;;;20.60;8.88;;;;;;;;;;5035011;28;20025;-64
2022/04/06 00:11:57;;;;;;;21.38;9.15;;;;;;;;;;5035996;28;20098;-63
2022/04/06 00:14:22;;;;;;;24.35;9.55;;;;;;;;;;5035430;28;20036;-62
2022/04/06 00:16:48;;;;;;;23.15;7.50;;;;;;;;;;5034628;28;20041;-63
2022/04/06 00:19:14;;;;;;;26.83;10.32;;;;;;;;;;5035225;28;20032;-63
2022/04/06 00:21:40;;;;;;;25.70;10.27;;;;;;;;;;5034357;28;20037;-63
2022/04/06 00:24:05;;;;;;;26.23;8.65;;;;;;;;;;5035045;28;20364;-63
2022/04/06 00:26:31;;;;;;;22.55;9.02;;;;;;;;;;5035068;28;20026;-67
2022/04/06 00:28:56;;;;;;;21.58;9.38;;;;;;;;;;5033551;28;20390;-63
2022/04/06 00:31:21;;;;;;;25.30;9.00;;;;;;;;;;5035264;28;20124;-63
2022/04/06 00:33:47;;;;;;;19.38;8.80;;;;;;;;;;5034433;28;20035;-63
2022/04/06 00:36:13;;;;;;;22.77;8.75;;;;;;;;;;5035190;28;20053;-63
2022/04/06 00:38:38;;;;;;;21.98;7.90;;;;;;;;;;5034492;28;20030;-63
2022/04/06 00:41:03;;;;;;;18.20;7.05;;;;;;;;;;5035193;28;20064;-63
2022/04/06 00:43:29;;;;;;;16.45;6.85;;;;;;;;;;5034441;28;20030;-63
2022/04/06 00:45:54;;;;;;;19.98;8.40;;;;;;;;;;5034410;28;20037;-63
2022/04/06 00:48:19;;;;;;;17.73;7.72;;;;;;;;;;5034731;28;20034;-63
2022/04/06 00:50:45;;;;;;;19.67;8.77;;;;;;;;;;5034369;28;20059;-63
2022/04/06 00:53:12;;;;;;;15.95;6.35;;;;;;;;;;5034554;28;20083;-63
2022/04/06 00:55:39;;;;;;;18.00;7.97;;;;;;;;;;5034156;28;20048;-63
2022/04/06 00:58:06;;;;;;;17.30;7.05;;;;;;;;;;5034776;28;20570;-64
2022/04/06 01:00:32;;;;;;;22.05;8.20;;;;;;;;;;5034463;28;20029;-64
2022/04/06 01:02:58;;;;;;;18.90;8.13;;;;;;;;;;5034024;28;20040;-63
2022/04/06 01:05:25;;;;;;;16.30;6.05;;;;;;;;;;5033834;28;20033;-63
2022/04/06 01:07:52;;;;;;;23.83;8.30;;;;;;;;;;5034368;28;20029;-63
2022/04/06 01:10:18;;;;;;;16.17;6.45;;;;;;;;;;5034656;28;20048;-63
2022/04/06 01:12:48;;;;;;;21.38;7.05;;;;;;;;;;5033861;28;20037;-64
2022/04/06 01:15:15;;;;;;;21.33;6.32;;;;;;;;;;5034191;28;20029;-63
2022/04/06 01:17:40;;;;;;;17.23;6.93;;;;;;;;;;5033560;28;20553;-64
2022/04/06 01:20:08;;;;;;;18.02;6.43;;;;;;;;;;5034194;28;20077;-63
2022/04/06 01:22:35;;;;;;;16.65;6.75;;;;;;;;;;5034010;28;20379;-63
2022/04/06 01:25:02;;;;;;;19.70;8.07;;;;;;;;;;5034200;28;20040;-63
2022/04/06 01:27:28;;;;;;;17.27;6.18;;;;;;;;;;5034323;28;20025;-63
2022/04/06 01:29:54;;;;;;;13.80;6.10;;;;;;;;;;5033889;28;20033;-63
2022/04/06 01:32:23;;;;;;;17.23;7.25;;;;;;;;;;5034344;28;20072;-63
2022/04/06 01:34:49;;;;;;;15.82;7.15;;;;;;;;;;5033063;28;20424;-63
2022/04/06 01:37:15;;;;;;;21.60;7.70;;;;;;;;;;5034120;28;20032;-63
2022/04/06 01:39:43;;;;;;;15.48;6.40;;;;;;;;;;5033446;28;20033;-64
2022/04/06 01:42:12;;;;;;;19.52;6.90;;;;;;;;;;5033917;28;20125;-64
2022/04/06 01:44:38;;;;;;;17.90;7.03;;;;;;;;;;5033220;28;20075;-64
2022/04/06 01:47:06;;;;;;;11.80;5.32;;;;;;;;;;5034041;28;20053;-63
2022/04/06 01:52:15;;;;;;;12.88;5.68;;;;;;;;;;5034802;28;20048;-64
2022/04/06 01:54:52;;;;;;;14.98;6.95;;;;;;;;;;5033725;28;20034;-64
2022/04/06 01:57:18;;;;;;;18.90;7.57;;;;;;;;;;5033920;28;20029;-64
2022/04/06 01:59:44;;;;;;;19.02;7.47;;;;;;;;;;5032835;28;20026;-64
2022/04/06 02:02:13;;;;;;;19.35;8.13;;;;;;;;;;5033422;28;20467;-65
2022/04/06 02:04:39;;;;;;;22.27;8.43;;;;;;;;;;5032920;28;20034;-64
2022/04/06 02:07:05;;;;;;;14.32;6.35;;;;;;;;;;5033606;28;20022;-65
2022/04/06 02:09:31;;;;;;;20.98;7.43;;;;;;;;;;5033620;28;20025;-65
2022/04/06 02:11:56;;;;;;;16.50;7.75;;;;;;;;;;5032985;28;20643;-65
2022/04/06 02:14:23;;;;;;;17.30;6.75;;;;;;;;;;5033043;28;20028;-65
2022/04/06 02:16:48;;;;;;;15.90;6.82;;;;;;;;;;5032752;28;20600;-66
2022/04/06 02:19:14;;;;;;;17.10;7.78;;;;;;;;;;5033441;28;20104;-65
2022/04/06 02:21:39;;;;;;;11.98;5.60;;;;;;;;;;5032796;28;20049;-66
2022/04/06 02:24:05;;;;;;;11.68;5.82;;;;;;;;;;5033116;28;20034;-65
2022/04/06 02:26:30;;;;;;;13.27;6.13;;;;;;;;;;5033362;28;20152;-66
2022/04/06 02:28:56;;;;;;;15.48;6.75;;;;;;;;;;5032652;28;20057;-66
2022/04/06 02:31:23;;;;;;;13.73;5.72;;;;;;;;;;5033199;28;20083;-66
2022/04/06 02:33:48;;;;;;;8.63;4.82;;;;;;;;;;5032265;28;20037;-65
2022/04/06 02:36:14;;;;;;;12.43;6.28;;;;;;;;;;5031705;28;20114;-66
2022/04/06 02:38:39;;;;;;;17.73;6.00;;;;;;;;;;5032366;28;20120;-66
2022/04/06 02:41:06;;;;;;;19.83;8.00;;;;;;;;;;5032546;28;20029;-65
2022/04/06 02:43:32;;;;;;;14.95;5.85;;;;;;;;;;5015250;28;20029;-65
2022/04/06 02:45:57;;;;;;;15.18;6.68;;;;;;;;;;5032297;28;20060;-65
2022/04/06 02:48:22;;;;;;;12.63;6.40;;;;;;;;;;5031243;28;20067;-66
2022/04/06 02:50:48;;;;;;;15.20;6.15;;;;;;;;;;5031904;28;20045;-66
2022/04/06 02:53:13;;;;;;;14.10;6.20;;;;;;;;;;5032625;28;20029;-65
2022/04/06 02:55:38;;;;;;;15.75;6.50;;;;;;;;;;5032688;28;20029;-66
2022/04/06 02:58:04;;;;;;;19.05;6.18;;;;;;;;;;5032091;28;20434;-65
2022/04/06 03:00:32;;;;;;;18.40;6.22;;;;;;;;;;5031408;28;20040;-65
2022/04/06 03:02:58;;;;;;;13.27;6.57;;;;;;;;;;5031869;28;20029;-66
2022/04/06 03:05:24;;;;;;;16.35;6.18;;;;;;;;;;5032637;28;20394;-65
2022/04/06 03:07:50;;;;;;;15.00;6.10;;;;;;;;;;5031835;28;20026;-64
2022/04/06 03:10:16;;;;;;;11.57;4.43;;;;;;;;;;5032416;28;20025;-64
2022/04/06 03:12:41;;;;;;;13.38;5.28;;;;;;;;;;5031683;28;20486;-64
2022/04/06 03:15:07;;;;;;;15.55;5.13;;;;;;;;;;5032283;28;20033;-65
2022/04/06 03:17:33;;;;;;;10.82;4.78;;;;;;;;;;5032314;28;20531;-65
2022/04/06 03:19:58;;;;;;;17.40;6.20;;;;;;;;;;5031540;28;20037;-65
2022/04/06 03:22:23;;;;;;;9.10;4.25;;;;;;;;;;5031987;28;20034;-65
2022/04/06 03:24:49;;;;;;;11.27;5.32;;;;;;;;;;5031501;28;20056;-65
2022/04/06 03:27:14;;;;;;;12.05;5.07;;;;;;;;;;5032167;28;20464;-64
2022/04/06 03:29:40;;;;;;;14.75;5.03;;;;;;;;;;5031417;28;20057;-65
2022/04/06 03:32:09;;;;;;;11.23;3.60;;;;;;;;;;5031060;28;20072;-64
2022/04/06 03:34:35;;;;;;;9.57;3.88;;;;;;;;;;5031707;28;20029;-65
2022/04/06 03:37:00;;;;;;;12.02;4.35;;;;;;;;;;5031485;28;20033;-64
2022/04/06 03:39:26;;;;;;;14.05;4.85;;;;;;;;;;5032040;28;20032;-64
2022/04/06 03:41:51;;;;;;;9.43;4.13;;;;;;;;;;5029979;28;20594;-64
2022/04/06 03:44:17;;;;;;;7.35;3.75;;;;;;;;;;5031538;28;20479;-65
2022/04/06 03:46:42;;;;;;;12.88;4.85;;;;;;;;;;5030437;28;20387;-65
2022/04/06 03:49:08;;;;;;;13.32;4.68;;;;;;;;;;5030344;28;20029;-65
2022/04/06 03:51:33;;;;;;;9.10;3.90;;;;;;;;;;5030611;28;20042;-65
2022/04/06 03:53:59;;;;;;;13.00;3.88;;;;;;;;;;5031135;28;20112;-66
2022/04/06 03:56:24;;;;;;;8.50;3.88;;;;;;;;;;5031837;28;20033;-65
2022/04/06 03:58:50;;;;;;;9.45;3.97;;;;;;;;;;5031277;28;20036;-65
2022/04/06 04:01:16;;;;;;;13.93;4.53;;;;;;;;;;5031773;28;20438;-65
2022/04/06 04:03:41;;;;;;;11.02;4.38;;;;;;;;;;5031703;28;20111;-65
2022/04/06 04:06:07;;;;;;;9.50;4.07;;;;;;;;;;5031360;28;20104;-65
2022/04/06 04:08:32;;;;;;;12.45;3.90;;;;;;;;;;5031623;28;20121;-65
2022/04/06 04:10:57;;;;;;;11.70;3.90;;;;;;;;;;5031230;28;20087;-65
2022/04/06 04:13:23;;;;;;;12.07;4.03;;;;;;;;;;5032073;28;20351;-65
2022/04/06 04:15:48;;;;;;;11.77;3.70;;;;;;;;;;5031104;28;20037;-65
2022/04/06 04:18:14;;;;;;;10.45;3.90;;;;;;;;;;5031506;28;20025;-65
2022/04/06 04:20:41;;;;;;;9.52;3.25;;;;;;;;;;5031814;28;20391;-64
2022/04/06 04:23:07;;;;;;;11.45;3.53;;;;;;;;;;5031126;28;20029;-64
2022/04/06 04:25:33;;;;;;;9.73;3.53;;;;;;;;;;5030131;28;20037;-65
2022/04/06 04:27:58;;;;;;;8.02;3.97;;;;;;;;;;5030732;28;20087;-65
2022/04/06 04:30:23;;;;;;;9.80;4.05;;;;;;;;;;5031679;28;20451;-65
2022/04/06 04:32:49;;;;;;;9.38;3.72;;;;;;;;;;5031047;28;20033;-66
2022/04/06 04:35:14;;;;;;;7.43;3.65;;;;;;;;;;5031463;28;20033;-65
2022/04/06 04:37:40;;;;;;;8.63;3.67;;;;;;;;;;5031607;28;20060;-65
2022/04/06 04:40:07;;;;;;;11.55;4.13;;;;;;;;;;5031077;28;20273;-65
2022/04/06 04:42:32;;;;;;;11.02;4.15;;;;;;;;;;5035071;28;20030;-64
2022/04/06 04:44:58;;;;;;;12.48;4.20;;;;;;;;;;5033217;28;20052;-65
2022/04/06 04:47:23;;;;;;;13.40;3.90;;;;;;;;;;5035133;28;20379;-65
2022/04/06 04:49:49;;;;;;;11.75;4.00;;;;;;;;;;5034038;28;20156;-65
2022/04/06 04:52:14;;;;;;;13.95;4.45;;;;;;;;;;5034903;28;20463;-65
2022/04/06 04:54:39;;;;;;;10.48;4.03;;;;;;;;;;5034782;28;20025;-65
2022/04/06 04:57:05;;;;;;;15.55;4.55;;;;;;;;;;5032872;28;20033;-65
2022/04/06 04:59:31;;;;;;;8.30;3.47;;;;;;;;;;5034792;28;20025;-65
2022/04/06 05:01:56;;;;;;;9.40;3.78;;;;;;;;;;5034129;28;20132;-65
2022/04/06 05:04:22;;;;;;;13.30;4.07;;;;;;;;;;5033287;28;20467;-65
2022/04/06 05:06:48;;;;;;;6.82;3.38;;;;;;;;;;5033404;28;20528;-65
2022/04/06 05:09:13;;;;;;;11.00;3.80;;;;;;;;;;5034658;28;20037;-65
2022/04/06 05:11:38;;;;;;;11.57;4.50;;;;;;;;;;5034360;28;20038;-65
2022/04/06 05:14:04;;;;;;;12.30;4.15;;;;;;;;;;5033892;28;20075;-65
2022/04/06 05:16:30;;;;;;;10.73;4.03;;;;;;;;;;5034131;28;20051;-65
2022/04/06 05:18:55;;;;;;;11.93;4.05;;;;;;;;;;5033872;28;20068;-65
2022/04/06 05:21:21;;;;;;;10.02;3.58;;;;;;;;;;5034604;28;20068;-65
2022/04/06 05:23:46;;;;;;;9.50;3.83;;;;;;;;;;5034403;28;20040;-65
2022/04/06 05:26:12;;;;;;;18.00;4.72;;;;;;;;;;5033891;28;20037;-65
2022/04/06 05:28:38;;;;;;;14.60;4.20;;;;;;;;;;5033366;28;20037;-64
2022/04/06 05:31:04;;;;;;;10.90;3.90;;;;;;;;;;5033611;28;20391;-65
2022/04/06 05:33:29;;;;;;;8.25;3.70;;;;;;;;;;5034573;28;20391;-65
2022/04/06 05:35:55;;;;;;;9.45;3.67;;;;;;;;;;5033874;28;20075;-64
2022/04/06 05:38:20;;;;;;;10.13;4.38;;;;;;;;;;5033549;28;20029;-64
2022/04/06 05:40:46;;;;;;;8.98;3.42;;;;;;;;;;5033267;28;20029;-65
2022/04/06 05:43:16;;;;;;;9.15;4.07;;;;;;;;;;5047213;28;20106;-64
2022/04/06 05:45:42;;;;;;;9.50;3.45;;;;;;;;;;5054548;28;20059;-64
2022/04/06 05:48:08;;;;;;;11.80;3.63;;;;;;;;;;5052768;28;20060;-64
2022/04/06 05:50:34;;;;;;;8.90;3.17;;;;;;;;;;5053084;28;20033;-64
2022/04/06 05:52:59;;;;;;;9.50;3.83;;;;;;;;;;5053460;28;20039;-65
2022/04/06 05:55:25;;;;;;;11.93;2.90;;;;;;;;;;5052998;28;20056;-64
2022/04/06 05:57:51;;;;;;;9.93;3.22;;;;;;;;;;5053097;28;20139;-68
2022/04/06 06:00:17;;;;;;;9.43;3.33;;;;;;;;;;5053092;28;20146;-65
2022/04/06 06:02:44;;;;;;;8.40;3.70;;;;;;;;;;5053501;28;20032;-64
2022/04/06 06:05:10;;;;;;;11.27;3.53;;;;;;;;;;5052473;28;20143;-64
2022/04/06 06:07:35;;;;;;;10.75;3.35;;;;;;;;;;5053425;28;20470;-64
2022/04/06 06:10:02;;;;;;;9.20;3.50;;;;;;;;;;5052929;28;20036;-64
2022/04/06 06:12:28;;;;;;;8.98;3.10;;;;;;;;;;5053630;28;20029;-64
2022/04/06 06:14:53;;;;;;;7.95;3.80;;;;;;;;;;5051163;28;20039;-64
2022/04/06 06:17:19;;;;;;;6.80;3.05;;;;;;;;;;5053484;28;20040;-64
2022/04/06 06:19:44;;;;;;;9.32;3.38;;;;;;;;;;5053113;28;20466;-64
2022/04/06 06:22:09;;;;;;;6.55;3.42;;;;;;;;;;5052641;28;20040;-65
2022/04/06 06:24:35;;;;;;;9.70;3.83;;;;;;;;;;5054011;28;20106;-65
2022/04/06 06:27:00;;;;;;;8.90;3.90;;;;;;;;;;5052993;28;20033;-65
2022/04/06 06:29:26;;;;;;;16.15;4.57;;;;;;;;;;5053008;28;20029;-64
2022/04/06 06:31:51;;;;;;;10.30;3.60;;;;;;;;;;5052543;28;20029;-65
2022/04/06 06:34:17;;;;;;;10.38;4.05;;;;;;;;;;5051143;28;20033;-64
2022/04/06 06:36:42;;;;;;;8.43;3.45;;;;;;;;;;5053091;28;20108;-65
2022/04/06 06:39:08;;;;;;;9.20;3.00;;;;;;;;;;5052140;28;20033;-64
2022/04/06 06:41:35;;;;;;;6.13;2.47;;;;;;;;;;5053021;28;20025;-65
2022/04/06 06:44:01;;;;;;;10.68;3.38;;;;;;;;;;5052102;28;20029;-64
2022/04/06 06:46:27;;;;;;;9.88;3.45;;;;;;;;;;5051667;28;20383;-64
2022/04/06 06:48:54;;;;;;;12.65;2.95;;;;;;;;;;5051897;28;20419;-65
2022/04/06 06:51:19;;;;;;;9.95;2.72;;;;;;;;;;5050319;28;20032;-65
2022/04/06 06:53:44;;;;;;;7.00;2.35;;;;;;;;;;5052618;28;20029;-64
2022/04/06 06:56:10;;;;;;;7.65;2.40;;;;;;;;;;5051914;28;20100;-64
2022/04/06 06:58:36;;;;;;;5.30;2.70;;;;;;;;;;5052577;28;20025;-64
2022/04/06 07:01:01;;;;;;;9.25;2.80;;;;;;;;;;5052022;28;20029;-64
2022/04/06 07:03:26;;;;;;;8.35;2.67;;;;;;;;;;5051627;28;20036;-65
2022/04/06 07:05:52;;;;;;;7.80;2.38;;;;;;;;;;5052213;28;20386;-64
2022/04/06 07:08:17;;;;;;;7.07;2.80;;;;;;;;;;5051839;28;20301;-64
2022/04/06 07:10:44;;;;;;;3.83;2.03;;;;;;;;;;5052011;28;20032;-64
2022/04/06 07:13:12;;;;;;;3.97;1.80;;;;;;;;;;5051724;28;20025;-65
2022/04/06 07:15:39;;;;;;;11.88;2.47;;;;;;;;;;5052268;28;20029;-65
2022/04/06 07:18:06;;;;;;;6.50;2.58;;;;;;;;;;5051929;28;20037;-65
2022/04/06 07:20:31;;;;;;;7.45;2.25;;;;;;;;;;5051991;28;20041;-65
2022/04/06 07:22:57;;;;;;;7.88;2.55;;;;;;;;;;5051535;28;20090;-65
2022/04/06 07:25:24;;;;;;;6.00;2.20;;;;;;;;;;5051098;28;20052;-65
2022/04/06 07:27:49;;;;;;;5.50;2.28;;;;;;;;;;5052195;28;20525;-64
2022/04/06 07:30:15;;;;;;;6.00;2.30;;;;;;;;;;5050210;28;20037;-65
2022/04/06 07:32:40;;;;;;;4.95;2.33;;;;;;;;;;5050926;28;20025;-65
2022/04/06 07:35:07;;;;;;;10.65;3.15;;;;;;;;;;5051401;28;20044;-65
2022/04/06 07:37:43;;;;;;;7.88;2.85;;;;;;;;;;5052189;28;20032;-64
2022/04/06 07:40:10;;;;;;;9.07;3.22;;;;;;;;;;5051584;28;20040;-65
2022/04/06 07:42:37;;;;;;;7.47;3.53;;;;;;;;;;5051303;28;20048;-64
2022/04/06 07:45:07;;;;;;;8.98;4.72;;;;;;;;;;5049869;28;20369;-65
2022/04/06 07:47:34;;;;;;;10.35;4.00;;;;;;;;;;5051689;28;20087;-64
2022/04/06 07:50:01;;;;;;;10.15;3.63;;;;;;;;;;5051376;28;20149;-64
2022/04/06 07:52:27;;;;;;;9.10;4.47;;;;;;;;;;5051925;28;20089;-64
2022/04/06 07:54:52;;;;;;;9.75;4.85;;;;;;;;;;5050317;28;20048;-64
2022/04/06 07:57:20;;;;;;;10.20;4.57;;;;;;;;;;5051270;28;20037;-64
2022/04/06 07:59:46;;;;;;;8.02;4.10;;;;;;;;;;5052117;28;20477;-64
2022/04/06 08:02:11;;;;;;;10.27;3.80;;;;;;;;;;5051293;28;20025;-64
2022/04/06 08:04:37;;;;;;;8.63;3.75;;;;;;;;;;5050542;28;20021;-64
2022/04/06 08:07:03;;;;;;;10.88;3.92;;;;;;;;;;5051229;28;20524;-65
2022/04/06 08:09:28;;;;;;;6.82;3.38;;;;;;;;;;5051789;28;20056;-65
2022/04/06 08:11:54;;;;;;;8.93;3.85;;;;;;;;;;5051456;28;20068;-64
2022/04/06 08:14:20;;;;;;;7.25;3.20;;;;;;;;;;5050584;28;20493;-64
2022/04/06 08:16:45;;;;;;;15.93;3.60;;;;;;;;;;5055664;28;20083;-64
2022/04/06 08:19:11;;;;;;;10.35;3.45;;;;;;;;;;5055098;28;20033;-64
2022/04/06 08:21:36;;;;;;;11.48;3.45;;;;;;;;;;5055110;28;20048;-63
2022/04/06 08:24:02;;;;;;;10.77;4.32;;;;;;;;;;5054901;28;20041;-65
2022/04/06 08:26:27;;;;;;;6.80;3.40;;;;;;;;;;5055324;28;20040;-64
2022/04/06 08:28:54;;;;;;;6.40;3.00;;;;;;;;;;5055525;28;20059;-64
2022/04/06 08:31:20;;;;;;;13.38;4.35;;;;;;;;;;5054514;28;20821;-64
2022/04/06 08:33:45;;;;;;;6.45;2.80;;;;;;;;;;5054982;28;20057;-64
2022/04/06 08:36:12;;;;;;;11.55;3.63;;;;;;;;;;5054571;28;20033;-64
2022/04/06 08:38:37;;;;;;;7.35;2.90;;;;;;;;;;5055142;28;20044;-64
2022/04/06 08:41:03;;;;;;;7.95;3.20;;;;;;;;;;5054565;28;20577;-64
2022/04/06 08:43:28;;;;;;;5.28;3.10;;;;;;;;;;5055235;28;20036;-64
2022/04/06 08:45:54;;;;;;;6.43;3.33;;;;;;;;;;5054788;28;20025;-64
2022/04/06 08:48:20;;;;;;;6.85;3.08;;;;;;;;;;5053187;28;20028;-64
2022/04/06 08:50:48;;;;;;;8.77;4.07;;;;;;;;;;5055069;28;20021;-64
2022/04/06 08:53:14;;;;;;;6.30;3.70;;;;;;;;;;5052864;28;20115;-64
2022/04/06 08:55:39;;;;;;;10.50;4.10;;;;;;;;;;5054844;28;20122;-64
2022/04/06 08:58:05;;;;;;;6.75;3.45;;;;;;;;;;5052798;28;20029;-64
2022/04/06 09:00:33;;;;;;;6.68;4.05;;;;;;;;;;5054759;28;20064;-64
2022/04/06 09:02:59;;;;;;;6.53;3.83;;;;;;;;;;5054774;28;20120;-64
2022/04/06 09:05:27;;;;;;;7.18;3.53;;;;;;;;;;5053985;28;20100;-64
2022/04/06 09:07:53;;;;;;;14.60;3.83;;;;;;;;;;5054636;28;20433;-64
2022/04/06 09:10:38;;;;;;;8.93;4.35;;;;;;;;;;5054038;28;20033;-64
2022/04/06 09:13:11;;;;;;;7.30;3.80;;;;;;;;;;5053668;28;20450;-65
2022/04/06 09:15:36;;;;;;;9.40;4.10;;;;;;;;;;5054410;28;20065;-65
2022/04/06 09:18:02;;;;;;;5.00;2.75;;;;;;;;;;5054452;28;20147;-65
2022/04/06 09:20:29;;;;;;;5.60;2.78;;;;;;;;;;5054651;28;20045;-65
2022/04/06 09:22:55;;;;;;;7.28;3.40;;;;;;;;;;5054379;28;20032;-63
2022/04/06 09:25:20;;;;;;;5.85;3.08;;;;;;;;;;5053925;28;20411;-64
2022/04/06 09:27:46;;;;;;;9.88;3.60;;;;;;;;;;5053282;28;20025;-64
2022/04/06 09:30:12;;;;;;;5.00;3.03;;;;;;;;;;5053521;28;20192;-64
2022/04/06 09:32:40;;;;;;;8.25;3.28;;;;;;;;;;5054113;28;20119;-64
2022/04/06 09:35:25;;;;;;;5.85;2.67;;;;;;;;;;5053403;28;20513;-64
2022/04/06 09:38:08;;;;;;;4.50;2.67;;;;;;;;;;5053781;28;20425;-64
2022/04/06 09:40:33;;;;;;;4.35;2.55;;;;;;;;;;5053812;28;20387;-65
2022/04/06 09:42:59;;;;;;;5.82;2.95;;;;;;;;;;5053578;28;20039;-65
2022/04/06 09:48:28;;;;;;;5.35;2.30;;;;;;;;;;5030901;28;20042;-65
2022/04/06 09:50:56;;;;;;;6.32;2.58;;;;;;;;;;5049178;28;20051;-64
2022/04/06 09:53:27;;;;;;;6.13;2.97;;;;;;;;;;5053141;28;20498;-65
2022/04/06 09:55:55;;;;;;;;;;;;;;;;;;5054109;28;20029;-65
2022/04/06 09:58:22;;;;;;;6.07;2.50;;;;;;;;;;5053064;28;19908;-65
2022/04/06 10:00:48;;;;;;;5.90;2.72;;;;;;;;;;5053511;28;20159;-64
2022/04/06 10:03:18;;;;;;;8.13;2.13;;;;;;;;;;5052842;28;20075;-64
2022/04/06 10:05:46;;;;;;;6.97;2.70;;;;;;;;;;5053353;28;20036;-64
2022/04/06 10:08:12;;;;;;;5.85;2.60;;;;;;;;;;5051422;28;20128;-64
2022/04/06 10:10:40;;;;;;;3.80;2.10;;;;;;;;;;5053189;28;20116;-64
2022/04/06 10:13:07;;;;;;;7.70;3.00;;;;;;;;;;5053453;28;20029;-64
2022/04/06 10:15:35;;;;;;;5.25;2.88;;;;;;;;;;5051884;28;20459;-64
2022/04/06 10:18:02;;;;;;;6.13;2.35;;;;;;;;;;5052997;28;20029;-64
2022/04/06 10:20:38;;;;;;;3.85;2.40;;;;;;;;;;5052274;28;20060;-65
2022/04/06 10:23:09;;;;;;;8.50;2.75;;;;;;;;;;5051924;28;20382;-63
2022/04/06 10:25:40;;;;;;;5.95;2.65;;;;;;;;;;5052778;28;20532;-64
2022/04/06 10:28:10;;;;;;;;;;;;;;;;;;5053339;28;20048;-64
2022/04/06 10:30:35;;;;;;;8.73;2.80;;;;;;;;;;5053136;28;20358;-64
2022/04/06 10:33:18;;;;;;;8.90;2.83;;;;;;;;;;5052842;28;20031;-64
2022/04/06 10:35:43;;;;;;;7.07;2.28;;;;;;;;;;5053484;28;20060;-65
2022/04/06 10:38:09;;;;;;;6.63;2.60;;;;;;;;;;5052321;28;20513;-65
2022/04/06 10:40:46;;;;;;;6.15;3.05;;;;;;;;;;5053317;28;20033;-64
2022/04/06 10:43:38;;;;;;;6.60;2.20;;;;;;;;;;5052293;28;20433;-64
2022/04/06 10:46:15;;;;;;;6.13;2.67;;;;;;;;;;5052226;28;20047;-64
2022/04/06 10:48:58;;;;;;;6.28;2.60;;;;;;;;;;5051704;28;20116;-64
2022/04/06 10:51:33;;;;;;;5.07;2.22;;;;;;;;;;5053381;28;20033;-64
2022/04/06 10:54:19;;;;;;;4.25;2.13;;;;;;;;;;5051283;28;20123;-64
2022/04/06 10:56:54;;;;;;;4.60;2.03;;;;;;;;;;5052445;28;20524;-65
2022/04/06 10:59:24;;;;;;;4.15;2.22;;;;;;;;;;5051793;28;20029;-65
2022/04/06 11:02:15;;;;;;;5.07;2.50;;;;;;;;;;5052591;28;20032;-65
2022/04/06 11:04:41;;;;;;;3.63;2.05;;;;;;;;;;5054425;28;20112;-64
2022/04/06 11:07:08;;;;;;;4.78;2.25;;;;;;;;;;5053976;28;20455;-64
2022/04/06 11:12:25;;;;;;;7.57;2.42;;;;;;;;;;5051973;28;20094;-64
2022/04/06 11:14:53;;;;;;;5.60;2.70;;;;;;;;;;5052416;28;20052;-64
2022/04/06 11:17:44;;;;;;;5.32;2.65;;;;;;;;;;5051552;28;20029;-64
2022/04/06 11:20:10;;;;;;;7.90;3.35;;;;;;;;;;5051826;28;20183;-64
2022/04/06 11:22:40;;;;;;;2.35;1.95;;;;;;;;;;5051966;28;20111;-64
2022/04/06 11:25:07;;;;;;;4.70;2.40;;;;;;;;;;5050841;28;20029;-64
2022/04/06 11:27:35;;;;;;;4.32;2.67;;;;;;;;;;5051287;28;20040;-64
2022/04/06 11:30:07;;;;;;;4.65;2.28;;;;;;;;;;5051980;28;20035;-65
2022/04/06 11:32:33;;;;;;;5.72;2.20;;;;;;;;;;5051403;28;20363;-65
2022/04/06 11:35:09;;;;;;;5.93;2.42;;;;;;;;;;5051773;28;20029;-64
2022/04/06 11:37:47;;;;;;;7.70;2.70;;;;;;;;;;5051487;28;20412;-64
2022/04/06 11:40:15;;;;;;;6.43;2.47;;;;;;;;;;5051249;28;20056;-64
2022/04/06 11:42:40;;;;;;;4.07;2.33;;;;;;;;;;5050918;28;20032;-64
2022/04/06 11:45:07;;;;;;;7.07;3.05;;;;;;;;;;5051886;28;20037;-64
2022/04/06 11:47:37;;;;;;;7.13;2.72;;;;;;;;;;5050979;28;20858;-64
2022/04/06 11:50:10;;;;;;;8.25;3.03;;;;;;;;;;5052663;28;20470;-64
2022/04/06 11:52:37;;;;;;;5.85;3.00;;;;;;;;;;5055555;28;20057;-64
2022/04/06 11:55:02;;;;;;;4.15;2.65;;;;;;;;;;5055775;28;20051;-64
2022/04/06 11:57:36;;;;;;;5.18;2.35;;;;;;;;;;5053158;28;20040;-64
2022/04/06 12:00:05;;;;;;;7.00;3.38;;;;;;;;;;5055656;28;20028;-64
2022/04/06 12:03:08;;;;;;;4.50;2.65;;;;;;;;;;5054000;28;20143;-64
2022/04/06 12:05:46;;;;;;;5.13;2.85;;;;;;;;;;5016380;28;20100;-64
2022/04/06 12:08:15;;;;;;;6.45;2.85;;;;;;;;;;5053161;28;20041;-64
2022/04/06 12:10:51;;;;;;;5.80;2.80;;;;;;;;;;5055983;28;20025;-64
2022/04/06 12:13:22;;;;;;;7.22;2.40;;;;;;;;;;5055092;28;20037;-64
2022/04/06 12:15:48;;;;;;;4.43;3.03;;;;;;;;;;5055675;28;20033;-64
2022/04/06 12:18:18;;;;;;;4.47;2.60;;;;;;;;;;5055089;28;20037;-64
2022/04/06 12:20:44;;;;;;;10.38;3.53;;;;;;;;;;5055222;28;20380;-64
2022/04/06 12:23:10;;;;;;;4.32;3.05;;;;;;;;;;5054157;28;20063;-64
2022/04/06 12:25:36;;;;;;;5.30;2.50;;;;;;;;;;5054796;28;20109;-64
2022/04/06 12:28:18;;;;;;;5.50;2.60;;;;;;;;;;5055158;28;20033;-64
2022/04/06 12:31:03;;;;;;;4.53;2.75;;;;;;;;;;5055374;28;20072;-64
2022/04/06 12:33:36;;;;;;;4.20;2.35;;;;;;;;;;5054679;28;20083;-64
2022/04/06 12:36:11;;;;;;;3.60;2.45;;;;;;;;;;5054874;28;20060;-64
2022/04/06 12:38:37;;;;;;;4.13;2.28;;;;;;;;;;5054472;28;20087;-64
2022/04/06 12:41:14;;;;;;;5.25;2.60;;;;;;;;;;5055190;28;20032;-64
2022/04/06 12:43:44;;;;;;;6.03;2.20;;;;;;;;;;5055080;28;20029;-66
2022/04/06 12:46:09;;;;;;;2.63;2.03;;;;;;;;;;5054860;28;20195;-64
2022/04/06 12:48:34;;;;;;;7.55;3.05;;;;;;;;;;5054357;28;20343;-64
2022/04/06 12:51:17;;;;;;;4.80;2.63;;;;;;;;;;5054844;28;20448;-64
2022/04/06 12:53:46;;;;;;;7.88;3.10;;;;;;;;;;5054806;28;20040;-64
2022/04/06 12:56:12;;;;;;;3.85;2.17;;;;;;;;;;5054532;28;20036;-64
2022/04/06 12:58:37;;;;;;;6.38;2.80;;;;;;;;;;5053729;28;20029;-64
2022/04/06 13:01:09;;;;;;;9.25;2.80;;;;;;;;;;5053476;28;20025;-65
2022/04/06 13:03:35;;;;;;;6.20;2.67;;;;;;;;;;5052823;28;20071;-64
2022/04/06 13:06:01;;;;;;;5.85;2.50;;;;;;;;;;5054539;28;20025;-64
2022/04/06 13:08:26;;;;;;;5.47;2.33;;;;;;;;;;5052648;28;20032;-64
2022/04/06 13:10:51;;;;;;;3.70;2.20;;;;;;;;;;5054728;28;20374;-64
2022/04/06 13:13:17;;;;;;;5.80;2.25;;;;;;;;;;5053993;28;20394;-64
2022/04/06 13:15:42;;;;;;;3.45;2.15;;;;;;;;;;5054477;28;20032;-64
2022/04/06 13:18:07;;;;;;;3.97;2.70;;;;;;;;;;5054385;28;20041;-66
2022/04/06 13:20:33;;;;;;;5.38;2.40;;;;;;;;;;5053757;28;20041;-64
2022/04/06 13:22:59;;;;;;;7.00;2.55;;;;;;;;;;5054586;28;20116;-64
2022/04/06 13:25:24;;;;;;;5.03;2.65;;;;;;;;;;5051822;28;20471;-64
2022/04/06 13:27:50;;;;;;;5.40;2.67;;;;;;;;;;5052971;28;20529;-64
2022/04/06 13:30:17;;;;;;;4.20;2.85;;;;;;;;;;5054347;28;20106;-64
2022/04/06 13:32:45;;;;;;;6.65;2.72;;;;;;;;;;5054171;28;20039;-64
2022/04/06 13:35:12;;;;;;;5.00;2.40;;;;;;;;;;5054169;28;20033;-64
2022/04/06 13:37:39;;;;;;;7.43;3.15;;;;;;;;;;5053388;28;20032;-64
2022/04/06 13:40:05;;;;;;;5.10;2.40;;;;;;;;;;5053866;28;20082;-64
2022/04/06 13:42:30;;;;;;;4.85;2.63;;;;;;;;;;5053394;28;20025;-64
2022/04/06 13:44:56;;;;;;;7.10;2.85;;;;;;;;;;5053995;28;20032;-64
2022/04/06 13:47:23;;;;;;;5.45;2.53;;;;;;;;;;5052950;28;20497;-64
2022/04/06 13:49:49;;;;;;;3.78;2.03;;;;;;;;;;5053823;28;20057;-64
2022/04/06 13:52:14;;;;;;;3.35;2.20;;;;;;;;;;5053713;28;20064;-64
2022/04/06 13:54:40;;;;;;;2.78;1.90;;;;;;;;;;5052751;28;20485;-64
2022/04/06 13:57:05;;;;;;;6.57;2.50;;;;;;;;;;5053646;28;20470;-64
2022/04/06 13:59:31;;;;;;;4.43;2.33;;;;;;;;;;5052966;28;20029;-64
2022/04/06 14:01:56;;;;;;;5.00;2.47;;;;;;;;;;5053601;28;20037;-64
2022/04/06 14:04:22;;;;;;;4.88;2.20;;;;;;;;;;5053271;28;20428;-64
2022/04/06 14:06:49;;;;;;;3.08;1.88;;;;;;;;;;5053252;28;20112;-64
2022/04/06 14:09:14;;;;;;;6.85;2.30;;;;;;;;;;5053439;28;20119;-64
2022/04/06 14:11:44;;;;;;;4.80;1.90;;;;;;;;;;5051588;28;20549;-64
2022/04/06 14:14:10;;;;;;;7.22;2.80;;;;;;;;;;5053221;28;20090;-64
2022/04/06 14:16:35;;;;;;;2.95;1.75;;;;;;;;;;5052843;28;20033;-64
2022/04/06 14:19:04;;;;;;;5.57;2.45;;;;;;;;;;5053631;28;20359;-64
2022/04/06 14:21:33;;;;;;;7.78;2.83;;;;;;;;;;5051559;28;20045;-65
2022/04/06 14:24:03;;;;;;;3.85;2.33;;;;;;;;;;5053575;28;20477;-64
2022/04/06 14:26:29;;;;;;;2.72;1.80;;;;;;;;;;5052450;28;20035;-65
2022/04/06 14:28:55;;;;;;;3.83;2.38;;;;;;;;;;5053185;28;20052;-65
2022/04/06 14:31:21;;;;;;;4.10;2.10;;;;;;;;;;5053762;28;20036;-64
2022/04/06 14:33:47;;;;;;;2.80;1.60;;;;;;;;;;5053431;28;20497;-65
2022/04/06 14:36:12;;;;;;;3.55;2.17;;;;;;;;;;5052844;28;20035;-66
2022/04/06 14:38:38;;;;;;;3.85;2.00;;;;;;;;;;5051007;28;20021;-63
2022/04/06 14:41:07;;;;;;;4.32;2.05;;;;;;;;;;5051838;28;20036;-63
2022/04/06 14:43:34;;;;;;;3.75;1.92;;;;;;;;;;5052371;28;20055;-65
2022/04/06 14:46:00;;;;;;;3.28;1.75;;;;;;;;;;5052856;28;20033;-65
2022/04/06 14:48:26;;;;;;;3.03;1.85;;;;;;;;;;5052288;28;20031;-65